sensor_id;sensor_type;location;lat;lon;timestamp;P1;durP1;ratioP1;P2;durP2;ratioP2
48052;SDS011;33824;51.600;5.718;2023-02-22T00:00:20;33.78;;;14.25;;
48052;SDS011;33824;51.600;5.718;2023-02-22T00:03:16;33.88;;;12.93;;
48052;SDS011;33824;51.600;5.718;2023-02-22T00:05:49;37.47;;;15.52;;
48052;SDS011;33824;51.600;5.718;2023-02-22T00:08:18;35.53;;;14.50;;
48052;SDS011;33824;51.600;5.718;2023-02-22T00:10:45;36.92;;;14.38;;
48052;SDS011;33824;51.600;5.718;2023-02-22T00:13:16;36.10;;;15.23;;
48052;SDS011;33824;51.600;5.718;2023-02-22T00:15:42;34.65;;;14.95;;
48052;SDS011;33824;51.600;5.718;2023-02-22T00:18:10;35.10;;;15.32;;
48052;SDS011;33824;51.600;5.718;2023-02-22T00:20:37;39.50;;;15.77;;
48052;SDS011;33824;51.600;5.718;2023-02-22T00:23:04;39.28;;;15.48;;
48052;SDS011;33824;51.600;5.718;2023-02-22T00:25:33;35.72;;;15.05;;
48052;SDS011;33824;51.600;5.718;2023-02-22T00:28:00;42.15;;;17.23;;
48052;SDS011;33824;51.600;5.718;2023-02-22T00:30:26;37.10;;;16.30;;
48052;SDS011;33824;51.600;5.718;2023-02-22T00:32:55;41.38;;;16.92;;
48052;SDS011;33824;51.600;5.718;2023-02-22T00:35:22;37.88;;;15.70;;
48052;SDS011;33824;51.600;5.718;2023-02-22T00:37:49;41.35;;;16.90;;
48052;SDS011;33824;51.600;5.718;2023-02-22T00:40:18;46.03;;;17.10;;
48052;SDS011;33824;51.600;5.718;2023-02-22T00:42:48;43.13;;;17.33;;
48052;SDS011;33824;51.600;5.718;2023-02-22T00:45:18;41.60;;;15.65;;
48052;SDS011;33824;51.600;5.718;2023-02-22T00:47:45;43.78;;;17.73;;
48052;SDS011;33824;51.600;5.718;2023-02-22T00:50:13;41.80;;;17.23;;
48052;SDS011;33824;51.600;5.718;2023-02-22T00:52:40;43.60;;;16.90;;
48052;SDS011;33824;51.600;5.718;2023-02-22T00:55:06;40.28;;;15.98;;
48052;SDS011;33824;51.600;5.718;2023-02-22T00:57:33;41.95;;;16.42;;
48052;SDS011;33824;51.600;5.718;2023-02-22T00:59:59;42.10;;;17.02;;
48052;SDS011;33824;51.600;5.718;2023-02-22T01:02:37;43.78;;;17.42;;
48052;SDS011;33824;51.600;5.718;2023-02-22T01:05:04;44.28;;;16.58;;
48052;SDS011;33824;51.600;5.718;2023-02-22T01:07:31;40.78;;;15.32;;
48052;SDS011;33824;51.600;5.718;2023-02-22T01:09:58;44.60;;;17.48;;
48052;SDS011;33824;51.600;5.718;2023-02-22T01:12:24;40.00;;;16.20;;
48052;SDS011;33824;51.600;5.718;2023-02-22T01:14:49;39.47;;;17.02;;
48052;SDS011;33824;51.600;5.718;2023-02-22T01:17:15;38.63;;;16.50;;
48052;SDS011;33824;51.600;5.718;2023-02-22T01:19:40;40.08;;;16.63;;
48052;SDS011;33824;51.600;5.718;2023-02-22T01:22:07;45.58;;;17.08;;
48052;SDS011;33824;51.600;5.718;2023-02-22T01:24:33;38.03;;;16.02;;
48052;SDS011;33824;51.600;5.718;2023-02-22T01:26:59;48.97;;;18.25;;
48052;SDS011;33824;51.600;5.718;2023-02-22T01:29:26;45.08;;;17.77;;
48052;SDS011;33824;51.600;5.718;2023-02-22T01:31:53;43.33;;;18.40;;
48052;SDS011;33824;51.600;5.718;2023-02-22T01:34:22;45.75;;;17.77;;
48052;SDS011;33824;51.600;5.718;2023-02-22T01:36:48;46.72;;;18.05;;
48052;SDS011;33824;51.600;5.718;2023-02-22T01:39:14;41.97;;;17.58;;
48052;SDS011;33824;51.600;5.718;2023-02-22T01:41:43;45.90;;;17.35;;
48052;SDS011;33824;51.600;5.718;2023-02-22T01:46:59;43.88;;;18.05;;
48052;SDS011;33824;51.600;5.718;2023-02-22T01:49:38;41.47;;;17.08;;
48052;SDS011;33824;51.600;5.718;2023-02-22T01:52:09;46.33;;;17.88;;
48052;SDS011;33824;51.600;5.718;2023-02-22T01:54:39;44.42;;;18.65;;
48052;SDS011;33824;51.600;5.718;2023-02-22T01:59:39;41.42;;;17.63;;
48052;SDS011;33824;51.600;5.718;2023-02-22T02:02:09;50.93;;;19.13;;
48052;SDS011;33824;51.600;5.718;2023-02-22T02:04:35;44.42;;;18.05;;
48052;SDS011;33824;51.600;5.718;2023-02-22T02:07:02;47.60;;;19.65;;
48052;SDS011;33824;51.600;5.718;2023-02-22T02:09:43;47.67;;;19.70;;
48052;SDS011;33824;51.600;5.718;2023-02-22T02:12:14;51.28;;;20.25;;
48052;SDS011;33824;51.600;5.718;2023-02-22T02:14:41;47.35;;;19.73;;
48052;SDS011;33824;51.600;5.718;2023-02-22T02:17:09;48.85;;;19.33;;
48052;SDS011;33824;51.600;5.718;2023-02-22T02:22:29;50.95;;;20.70;;
48052;SDS011;33824;51.600;5.718;2023-02-22T02:25:27;52.55;;;20.52;;
48052;SDS011;33824;51.600;5.718;2023-02-22T02:31:05;45.22;;;19.23;;
48052;SDS011;33824;51.600;5.718;2023-02-22T02:33:47;53.42;;;19.58;;
48052;SDS011;33824;51.600;5.718;2023-02-22T02:39:24;49.33;;;18.58;;
48052;SDS011;33824;51.600;5.718;2023-02-22T02:41:53;52.38;;;19.88;;
48052;SDS011;33824;51.600;5.718;2023-02-22T02:44:27;50.90;;;19.50;;
48052;SDS011;33824;51.600;5.718;2023-02-22T02:47:04;54.97;;;21.92;;
48052;SDS011;33824;51.600;5.718;2023-02-22T02:52:11;52.95;;;19.90;;
48052;SDS011;33824;51.600;5.718;2023-02-22T02:54:41;47.10;;;17.67;;
48052;SDS011;33824;51.600;5.718;2023-02-22T02:57:09;73.47;;;19.55;;
48052;SDS011;33824;51.600;5.718;2023-02-22T02:59:36;90.88;;;20.67;;
48052;SDS011;33824;51.600;5.718;2023-02-22T03:07:30;135.98;;;20.73;;
48052;SDS011;33824;51.600;5.718;2023-02-22T03:10:23;170.73;;;20.70;;
48052;SDS011;33824;51.600;5.718;2023-02-22T03:27:13;128.32;;;16.88;;
48052;SDS011;33824;51.600;5.718;2023-02-22T03:29:43;140.65;;;15.15;;
48052;SDS011;33824;51.600;5.718;2023-02-22T03:32:11;109.80;;;14.73;;
48052;SDS011;33824;51.600;5.718;2023-02-22T03:34:51;109.65;;;15.40;;
48052;SDS011;33824;51.600;5.718;2023-02-22T03:37:23;104.75;;;11.48;;
48052;SDS011;33824;51.600;5.718;2023-02-22T03:39:53;99.50;;;15.15;;
48052;SDS011;33824;51.600;5.718;2023-02-22T03:42:20;103.25;;;14.85;;
48052;SDS011;33824;51.600;5.718;2023-02-22T03:44:51;103.80;;;14.90;;
48052;SDS011;33824;51.600;5.718;2023-02-22T03:47:21;101.72;;;16.13;;
48052;SDS011;33824;51.600;5.718;2023-02-22T03:49:53;112.25;;;15.23;;
48052;SDS011;33824;51.600;5.718;2023-02-22T03:52:24;104.25;;;15.05;;
48052;SDS011;33824;51.600;5.718;2023-02-22T03:54:53;77.35;;;15.35;;
48052;SDS011;33824;51.600;5.718;2023-02-22T03:57:24;103.03;;;13.70;;
48052;SDS011;33824;51.600;5.718;2023-02-22T03:59:53;91.57;;;13.57;;
48052;SDS011;33824;51.600;5.718;2023-02-22T04:02:19;91.03;;;13.50;;
48052;SDS011;33824;51.600;5.718;2023-02-22T04:04:50;89.97;;;15.35;;
48052;SDS011;33824;51.600;5.718;2023-02-22T04:07:16;66.25;;;12.90;;
48052;SDS011;33824;51.600;5.718;2023-02-22T04:09:43;66.18;;;14.65;;
48052;SDS011;33824;51.600;5.718;2023-02-22T04:12:09;73.47;;;13.07;;
48052;SDS011;33824;51.600;5.718;2023-02-22T04:14:34;70.25;;;13.68;;
48052;SDS011;33824;51.600;5.718;2023-02-22T04:17:00;68.97;;;13.98;;
48052;SDS011;33824;51.600;5.718;2023-02-22T04:19:26;77.78;;;13.88;;
48052;SDS011;33824;51.600;5.718;2023-02-22T04:21:51;87.63;;;14.32;;
48052;SDS011;33824;51.600;5.718;2023-02-22T04:24:17;63.55;;;12.43;;
48052;SDS011;33824;51.600;5.718;2023-02-22T04:26:42;48.42;;;11.27;;
48052;SDS011;33824;51.600;5.718;2023-02-22T04:29:08;72.05;;;12.75;;
48052;SDS011;33824;51.600;5.718;2023-02-22T04:31:34;66.70;;;13.43;;
48052;SDS011;33824;51.600;5.718;2023-02-22T04:33:59;60.17;;;13.25;;
48052;SDS011;33824;51.600;5.718;2023-02-22T04:36:26;67.00;;;14.45;;
48052;SDS011;33824;51.600;5.718;2023-02-22T04:38:52;86.55;;;14.68;;
48052;SDS011;33824;51.600;5.718;2023-02-22T04:41:18;60.28;;;13.60;;
48052;SDS011;33824;51.600;5.718;2023-02-22T04:43:44;47.35;;;13.75;;
48052;SDS011;33824;51.600;5.718;2023-02-22T04:46:10;40.15;;;13.13;;
48052;SDS011;33824;51.600;5.718;2023-02-22T04:48:36;55.58;;;14.07;;
48052;SDS011;33824;51.600;5.718;2023-02-22T04:51:02;56.30;;;14.00;;
48052;SDS011;33824;51.600;5.718;2023-02-22T04:53:27;70.18;;;14.93;;
48052;SDS011;33824;51.600;5.718;2023-02-22T04:55:53;57.40;;;14.75;;
48052;SDS011;33824;51.600;5.718;2023-02-22T04:58:19;62.60;;;14.50;;
48052;SDS011;33824;51.600;5.718;2023-02-22T05:00:44;56.00;;;14.02;;
48052;SDS011;33824;51.600;5.718;2023-02-22T05:03:10;60.83;;;13.82;;
48052;SDS011;33824;51.600;5.718;2023-02-22T05:05:36;59.00;;;14.55;;
48052;SDS011;33824;51.600;5.718;2023-02-22T05:08:01;43.15;;;13.63;;
48052;SDS011;33824;51.600;5.718;2023-02-22T05:10:27;52.55;;;14.73;;
48052;SDS011;33824;51.600;5.718;2023-02-22T05:12:53;49.67;;;14.43;;
48052;SDS011;33824;51.600;5.718;2023-02-22T05:15:19;42.45;;;15.50;;
48052;SDS011;33824;51.600;5.718;2023-02-22T05:17:46;60.22;;;14.35;;
48052;SDS011;33824;51.600;5.718;2023-02-22T05:20:31;47.92;;;13.68;;
48052;SDS011;33824;51.600;5.718;2023-02-22T05:22:59;48.28;;;14.75;;
48052;SDS011;33824;51.600;5.718;2023-02-22T05:25:26;65.55;;;17.20;;
48052;SDS011;33824;51.600;5.718;2023-02-22T05:27:53;71.32;;;16.50;;
48052;SDS011;33824;51.600;5.718;2023-02-22T05:30:22;57.83;;;16.23;;
48052;SDS011;33824;51.600;5.718;2023-02-22T05:32:54;46.67;;;14.68;;
48052;SDS011;33824;51.600;5.718;2023-02-22T05:35:21;53.58;;;14.80;;
48052;SDS011;33824;51.600;5.718;2023-02-22T05:37:47;57.08;;;15.40;;
48052;SDS011;33824;51.600;5.718;2023-02-22T05:40:16;61.08;;;16.45;;
48052;SDS011;33824;51.600;5.718;2023-02-22T05:42:44;45.47;;;14.70;;
48052;SDS011;33824;51.600;5.718;2023-02-22T05:45:11;56.50;;;14.40;;
48052;SDS011;33824;51.600;5.718;2023-02-22T05:47:38;59.65;;;16.42;;
48052;SDS011;33824;51.600;5.718;2023-02-22T05:50:04;53.85;;;16.13;;
48052;SDS011;33824;51.600;5.718;2023-02-22T05:52:29;47.05;;;15.48;;
48052;SDS011;33824;51.600;5.718;2023-02-22T05:54:55;59.33;;;15.82;;
48052;SDS011;33824;51.600;5.718;2023-02-22T05:57:21;42.28;;;15.73;;
48052;SDS011;33824;51.600;5.718;2023-02-22T05:59:46;38.78;;;15.35;;
48052;SDS011;33824;51.600;5.718;2023-02-22T06:02:12;41.17;;;14.80;;
48052;SDS011;33824;51.600;5.718;2023-02-22T06:04:38;42.55;;;15.85;;
48052;SDS011;33824;51.600;5.718;2023-02-22T06:07:04;42.40;;;16.42;;
48052;SDS011;33824;51.600;5.718;2023-02-22T06:09:30;49.47;;;16.60;;
48052;SDS011;33824;51.600;5.718;2023-02-22T06:11:56;41.63;;;16.00;;
48052;SDS011;33824;51.600;5.718;2023-02-22T06:14:22;35.17;;;14.85;;
48052;SDS011;33824;51.600;5.718;2023-02-22T06:16:55;38.47;;;15.35;;
48052;SDS011;33824;51.600;5.718;2023-02-22T06:19:21;39.55;;;15.25;;
48052;SDS011;33824;51.600;5.718;2023-02-22T06:21:51;44.63;;;15.30;;
48052;SDS011;33824;51.600;5.718;2023-02-22T06:24:21;43.83;;;15.82;;
48052;SDS011;33824;51.600;5.718;2023-02-22T06:26:57;37.78;;;14.90;;
48052;SDS011;33824;51.600;5.718;2023-02-22T06:29:25;43.08;;;15.85;;
48052;SDS011;33824;51.600;5.718;2023-02-22T06:31:51;53.60;;;15.52;;
48052;SDS011;33824;51.600;5.718;2023-02-22T06:34:17;43.58;;;15.68;;
48052;SDS011;33824;51.600;5.718;2023-02-22T06:36:44;45.08;;;15.57;;
48052;SDS011;33824;51.600;5.718;2023-02-22T06:39:12;42.60;;;14.80;;
48052;SDS011;33824;51.600;5.718;2023-02-22T06:41:42;41.10;;;15.23;;
48052;SDS011;33824;51.600;5.718;2023-02-22T06:44:09;39.58;;;15.50;;
48052;SDS011;33824;51.600;5.718;2023-02-22T06:46:36;41.67;;;14.98;;
48052;SDS011;33824;51.600;5.718;2023-02-22T06:49:02;47.03;;;17.20;;
48052;SDS011;33824;51.600;5.718;2023-02-22T06:51:28;57.67;;;15.88;;
48052;SDS011;33824;51.600;5.718;2023-02-22T06:53:55;37.80;;;15.07;;
48052;SDS011;33824;51.600;5.718;2023-02-22T06:56:20;41.70;;;17.42;;
48052;SDS011;33824;51.600;5.718;2023-02-22T06:58:46;44.28;;;16.63;;
48052;SDS011;33824;51.600;5.718;2023-02-22T07:01:13;41.00;;;15.48;;
48052;SDS011;33824;51.600;5.718;2023-02-22T07:03:39;44.85;;;17.00;;
48052;SDS011;33824;51.600;5.718;2023-02-22T07:06:05;45.10;;;16.80;;
48052;SDS011;33824;51.600;5.718;2023-02-22T07:08:32;50.67;;;16.88;;
48052;SDS011;33824;51.600;5.718;2023-02-22T07:10:57;42.72;;;16.67;;
48052;SDS011;33824;51.600;5.718;2023-02-22T07:13:23;41.30;;;15.40;;
48052;SDS011;33824;51.600;5.718;2023-02-22T07:15:48;42.03;;;15.32;;
48052;SDS011;33824;51.600;5.718;2023-02-22T07:18:14;42.03;;;15.40;;
48052;SDS011;33824;51.600;5.718;2023-02-22T07:20:40;45.20;;;16.17;;
48052;SDS011;33824;51.600;5.718;2023-02-22T07:23:07;41.53;;;15.38;;
48052;SDS011;33824;51.600;5.718;2023-02-22T07:25:33;48.50;;;17.52;;
48052;SDS011;33824;51.600;5.718;2023-02-22T07:27:59;48.45;;;17.25;;
48052;SDS011;33824;51.600;5.718;2023-02-22T07:30:25;46.95;;;16.58;;
48052;SDS011;33824;51.600;5.718;2023-02-22T07:32:55;45.50;;;17.10;;
48052;SDS011;33824;51.600;5.718;2023-02-22T07:35:27;41.55;;;15.48;;
48052;SDS011;33824;51.600;5.718;2023-02-22T07:40:20;43.85;;;16.48;;
48052;SDS011;33824;51.600;5.718;2023-02-22T07:42:52;46.55;;;17.35;;
48052;SDS011;33824;51.600;5.718;2023-02-22T07:45:21;42.90;;;16.58;;
48052;SDS011;33824;51.600;5.718;2023-02-22T07:47:48;43.70;;;16.13;;
48052;SDS011;33824;51.600;5.718;2023-02-22T07:50:14;41.65;;;15.77;;
48052;SDS011;33824;51.600;5.718;2023-02-22T07:52:45;42.92;;;15.73;;
48052;SDS011;33824;51.600;5.718;2023-02-22T07:55:15;40.70;;;15.43;;
48052;SDS011;33824;51.600;5.718;2023-02-22T07:57:42;43.80;;;16.35;;
48052;SDS011;33824;51.600;5.718;2023-02-22T08:00:09;47.35;;;18.48;;
48052;SDS011;33824;51.600;5.718;2023-02-22T08:02:39;44.90;;;16.70;;
48052;SDS011;33824;51.600;5.718;2023-02-22T08:05:06;47.15;;;16.67;;
48052;SDS011;33824;51.600;5.718;2023-02-22T08:07:37;45.03;;;17.33;;
48052;SDS011;33824;51.600;5.718;2023-02-22T08:10:04;43.55;;;16.05;;
48052;SDS011;33824;51.600;5.718;2023-02-22T08:12:35;47.92;;;17.42;;
48052;SDS011;33824;51.600;5.718;2023-02-22T08:15:02;42.60;;;15.73;;
48052;SDS011;33824;51.600;5.718;2023-02-22T08:17:29;44.65;;;15.48;;
48052;SDS011;33824;51.600;5.718;2023-02-22T08:19:55;42.05;;;16.70;;
48052;SDS011;33824;51.600;5.718;2023-02-22T08:22:21;45.20;;;16.95;;
48052;SDS011;33824;51.600;5.718;2023-02-22T08:24:48;39.97;;;16.55;;
48052;SDS011;33824;51.600;5.718;2023-02-22T08:27:14;47.33;;;17.38;;
48052;SDS011;33824;51.600;5.718;2023-02-22T08:29:39;42.88;;;17.30;;
48052;SDS011;33824;51.600;5.718;2023-02-22T08:32:05;40.65;;;16.20;;
48052;SDS011;33824;51.600;5.718;2023-02-22T08:34:30;41.03;;;16.02;;
48052;SDS011;33824;51.600;5.718;2023-02-22T08:36:56;43.80;;;16.50;;
48052;SDS011;33824;51.600;5.718;2023-02-22T08:39:21;40.72;;;15.50;;
48052;SDS011;33824;51.600;5.718;2023-02-22T08:41:47;39.10;;;15.73;;
48052;SDS011;33824;51.600;5.718;2023-02-22T08:44:12;40.75;;;15.57;;
48052;SDS011;33824;51.600;5.718;2023-02-22T08:46:38;38.55;;;15.50;;
48052;SDS011;33824;51.600;5.718;2023-02-22T08:49:03;42.63;;;15.35;;
48052;SDS011;33824;51.600;5.718;2023-02-22T08:51:35;45.42;;;16.38;;
48052;SDS011;33824;51.600;5.718;2023-02-22T08:54:01;41.53;;;15.63;;
48052;SDS011;33824;51.600;5.718;2023-02-22T08:56:28;48.50;;;18.90;;
48052;SDS011;33824;51.600;5.718;2023-02-22T08:58:54;41.85;;;16.17;;
48052;SDS011;33824;51.600;5.718;2023-02-22T09:01:22;40.83;;;16.08;;
48052;SDS011;33824;51.600;5.718;2023-02-22T09:03:56;44.50;;;17.00;;
48052;SDS011;33824;51.600;5.718;2023-02-22T09:06:22;45.90;;;16.67;;
48052;SDS011;33824;51.600;5.718;2023-02-22T09:08:47;41.38;;;16.10;;
48052;SDS011;33824;51.600;5.718;2023-02-22T09:11:13;41.95;;;17.02;;
48052;SDS011;33824;51.600;5.718;2023-02-22T09:13:38;40.90;;;16.23;;
48052;SDS011;33824;51.600;5.718;2023-02-22T09:16:04;46.92;;;18.30;;
48052;SDS011;33824;51.600;5.718;2023-02-22T09:18:30;39.90;;;15.70;;
48052;SDS011;33824;51.600;5.718;2023-02-22T09:20:56;41.45;;;17.42;;
48052;SDS011;33824;51.600;5.718;2023-02-22T09:23:22;43.97;;;17.58;;
48052;SDS011;33824;51.600;5.718;2023-02-22T09:25:50;39.30;;;16.40;;
48052;SDS011;33824;51.600;5.718;2023-02-22T09:28:16;41.95;;;15.55;;
48052;SDS011;33824;51.600;5.718;2023-02-22T09:30:42;50.60;;;17.85;;
48052;SDS011;33824;51.600;5.718;2023-02-22T09:33:08;50.40;;;17.85;;
48052;SDS011;33824;51.600;5.718;2023-02-22T09:35:37;39.30;;;17.45;;
48052;SDS011;33824;51.600;5.718;2023-02-22T09:38:06;40.50;;;17.10;;
48052;SDS011;33824;51.600;5.718;2023-02-22T09:40:34;44.05;;;18.42;;
48052;SDS011;33824;51.600;5.718;2023-02-22T09:43:14;37.72;;;16.80;;
48052;SDS011;33824;51.600;5.718;2023-02-22T09:48:30;36.17;;;16.20;;
48052;SDS011;33824;51.600;5.718;2023-02-22T09:51:01;40.10;;;15.40;;
48052;SDS011;33824;51.600;5.718;2023-02-22T09:53:35;30.58;;;14.65;;
48052;SDS011;33824;51.600;5.718;2023-02-22T09:56:13;39.05;;;15.85;;
48052;SDS011;33824;51.600;5.718;2023-02-22T10:03:59;27.75;;;12.80;;
48052;SDS011;33824;51.600;5.718;2023-02-22T10:06:34;30.45;;;13.35;;
48052;SDS011;33824;51.600;5.718;2023-02-22T10:09:01;25.75;;;12.35;;
48052;SDS011;33824;51.600;5.718;2023-02-22T10:15:23;24.50;;;11.90;;
48052;SDS011;33824;51.600;5.718;2023-02-22T10:23:04;25.83;;;12.00;;
48052;SDS011;33824;51.600;5.718;2023-02-22T10:25:39;24.10;;;11.48;;
48052;SDS011;33824;51.600;5.718;2023-02-22T10:28:17;25.10;;;11.50;;
48052;SDS011;33824;51.600;5.718;2023-02-22T10:30:50;24.08;;;12.18;;
48052;SDS011;33824;51.600;5.718;2023-02-22T10:33:31;21.08;;;9.88;;
48052;SDS011;33824;51.600;5.718;2023-02-22T10:36:00;22.85;;;11.20;;
48052;SDS011;33824;51.600;5.718;2023-02-22T10:38:28;22.13;;;10.75;;
48052;SDS011;33824;51.600;5.718;2023-02-22T10:40:57;22.95;;;11.55;;
48052;SDS011;33824;51.600;5.718;2023-02-22T10:43:26;27.67;;;12.95;;
48052;SDS011;33824;51.600;5.718;2023-02-22T10:45:52;20.63;;;10.98;;
48052;SDS011;33824;51.600;5.718;2023-02-22T10:48:21;26.08;;;11.73;;
48052;SDS011;33824;51.600;5.718;2023-02-22T10:50:50;21.27;;;10.32;;
48052;SDS011;33824;51.600;5.718;2023-02-22T10:53:21;19.10;;;9.37;;
48052;SDS011;33824;51.600;5.718;2023-02-22T10:56:05;17.63;;;9.15;;
48052;SDS011;33824;51.600;5.718;2023-02-22T11:01:40;16.40;;;8.85;;
48052;SDS011;33824;51.600;5.718;2023-02-22T11:04:08;15.38;;;8.00;;
48052;SDS011;33824;51.600;5.718;2023-02-22T11:06:43;15.30;;;8.43;;
48052;SDS011;33824;51.600;5.718;2023-02-22T11:09:14;16.50;;;8.75;;
48052;SDS011;33824;51.600;5.718;2023-02-22T11:11:47;15.98;;;8.65;;
48052;SDS011;33824;51.600;5.718;2023-02-22T11:14:26;17.67;;;9.27;;
48052;SDS011;33824;51.600;5.718;2023-02-22T11:16:54;20.50;;;9.52;;
48052;SDS011;33824;51.600;5.718;2023-02-22T11:19:25;17.70;;;9.38;;
48052;SDS011;33824;51.600;5.718;2023-02-22T11:21:57;18.23;;;9.48;;
48052;SDS011;33824;51.600;5.718;2023-02-22T11:24:35;17.42;;;9.35;;
48052;SDS011;33824;51.600;5.718;2023-02-22T11:27:19;17.50;;;9.52;;
48052;SDS011;33824;51.600;5.718;2023-02-22T11:29:49;18.50;;;9.57;;
48052;SDS011;33824;51.600;5.718;2023-02-22T11:32:17;17.73;;;10.05;;
48052;SDS011;33824;51.600;5.718;2023-02-22T11:34:47;23.52;;;10.35;;
48052;SDS011;33824;51.600;5.718;2023-02-22T11:39:46;17.63;;;9.02;;
48052;SDS011;33824;51.600;5.718;2023-02-22T11:42:25;18.88;;;10.00;;
48052;SDS011;33824;51.600;5.718;2023-02-22T11:45:12;17.88;;;9.77;;
48052;SDS011;33824;51.600;5.718;2023-02-22T11:50:21;22.23;;;9.63;;
48052;SDS011;33824;51.600;5.718;2023-02-22T11:53:18;18.33;;;9.65;;
48052;SDS011;33824;51.600;5.718;2023-02-22T11:56:09;20.25;;;10.63;;
48052;SDS011;33824;51.600;5.718;2023-02-22T11:59:02;19.17;;;9.27;;
48052;SDS011;33824;51.600;5.718;2023-02-22T12:01:55;23.55;;;10.10;;
48052;SDS011;33824;51.600;5.718;2023-02-22T12:04:31;18.95;;;9.30;;
48052;SDS011;33824;51.600;5.718;2023-02-22T12:15:24;18.15;;;9.48;;
48052;SDS011;33824;51.600;5.718;2023-02-22T12:18:00;22.17;;;10.02;;
48052;SDS011;33824;51.600;5.718;2023-02-22T12:20:39;20.48;;;9.70;;
48052;SDS011;33824;51.600;5.718;2023-02-22T12:23:15;19.38;;;9.32;;
48052;SDS011;33824;51.600;5.718;2023-02-22T12:26:07;17.98;;;8.48;;
48052;SDS011;33824;51.600;5.718;2023-02-22T12:31:29;17.50;;;9.63;;
48052;SDS011;33824;51.600;5.718;2023-02-22T12:34:07;19.58;;;9.73;;
48052;SDS011;33824;51.600;5.718;2023-02-22T12:36:55;21.40;;;9.90;;
48052;SDS011;33824;51.600;5.718;2023-02-22T12:42:03;17.70;;;9.55;;
48052;SDS011;33824;51.600;5.718;2023-02-22T12:44:38;19.27;;;9.90;;
48052;SDS011;33824;51.600;5.718;2023-02-22T12:47:09;19.88;;;9.25;;
48052;SDS011;33824;51.600;5.718;2023-02-22T12:49:45;17.95;;;9.48;;
48052;SDS011;33824;51.600;5.718;2023-02-22T12:52:31;15.15;;;8.05;;
48052;SDS011;33824;51.600;5.718;2023-02-22T12:55:15;18.40;;;8.70;;
48052;SDS011;33824;51.600;5.718;2023-02-22T12:57:57;14.38;;;8.18;;
48052;SDS011;33824;51.600;5.718;2023-02-22T13:00:42;15.98;;;7.97;;
48052;SDS011;33824;51.600;5.718;2023-02-22T13:03:32;16.90;;;8.80;;
48052;SDS011;33824;51.600;5.718;2023-02-22T13:16:47;16.85;;;7.50;;
48052;SDS011;33824;51.600;5.718;2023-02-22T13:19:25;20.17;;;8.80;;
48052;SDS011;33824;51.600;5.718;2023-02-22T13:22:07;15.15;;;8.60;;
48052;SDS011;33824;51.600;5.718;2023-02-22T13:27:04;20.73;;;8.00;;
48052;SDS011;33824;51.600;5.718;2023-02-22T13:29:49;15.45;;;8.18;;
48052;SDS011;33824;51.600;5.718;2023-02-22T13:48:58;15.05;;;8.48;;
48052;SDS011;33824;51.600;5.718;2023-02-22T13:51:39;14.68;;;8.07;;
48052;SDS011;33824;51.600;5.718;2023-02-22T13:54:10;17.85;;;8.13;;
48052;SDS011;33824;51.600;5.718;2023-02-22T13:56:44;18.05;;;8.93;;
48052;SDS011;33824;51.600;5.718;2023-02-22T13:59:26;17.20;;;8.70;;
48052;SDS011;33824;51.600;5.718;2023-02-22T14:02:00;21.23;;;8.43;;
48052;SDS011;33824;51.600;5.718;2023-02-22T14:07:00;18.20;;;9.00;;
48052;SDS011;33824;51.600;5.718;2023-02-22T14:09:41;18.33;;;9.27;;
48052;SDS011;33824;51.600;5.718;2023-02-22T14:12:30;18.13;;;10.10;;
48052;SDS011;33824;51.600;5.718;2023-02-22T14:17:42;18.55;;;9.25;;
48052;SDS011;33824;51.600;5.718;2023-02-22T14:22:44;18.25;;;9.00;;
48052;SDS011;33824;51.600;5.718;2023-02-22T14:28:02;17.13;;;9.23;;
48052;SDS011;33824;51.600;5.718;2023-02-22T14:30:34;14.82;;;8.88;;
48052;SDS011;33824;51.600;5.718;2023-02-22T14:33:02;17.25;;;9.50;;
48052;SDS011;33824;51.600;5.718;2023-02-22T14:35:48;18.92;;;9.90;;
48052;SDS011;33824;51.600;5.718;2023-02-22T14:38:16;16.50;;;8.23;;
48052;SDS011;33824;51.600;5.718;2023-02-22T14:40:43;20.50;;;8.98;;
48052;SDS011;33824;51.600;5.718;2023-02-22T14:43:13;21.30;;;9.07;;
48052;SDS011;33824;51.600;5.718;2023-02-22T14:45:54;19.60;;;8.85;;
48052;SDS011;33824;51.600;5.718;2023-02-22T14:48:26;16.80;;;8.70;;
48052;SDS011;33824;51.600;5.718;2023-02-22T14:50:56;13.57;;;7.30;;
48052;SDS011;33824;51.600;5.718;2023-02-22T14:53:42;17.60;;;9.38;;
48052;SDS011;33824;51.600;5.718;2023-02-22T14:56:18;21.25;;;9.27;;
48052;SDS011;33824;51.600;5.718;2023-02-22T14:58:52;18.73;;;10.20;;
48052;SDS011;33824;51.600;5.718;2023-02-22T15:01:36;17.25;;;8.80;;
48052;SDS011;33824;51.600;5.718;2023-02-22T15:06:52;20.02;;;9.40;;
48052;SDS011;33824;51.600;5.718;2023-02-22T15:09:23;18.13;;;9.90;;
48052;SDS011;33824;51.600;5.718;2023-02-22T15:11:56;19.30;;;10.68;;
48052;SDS011;33824;51.600;5.718;2023-02-22T15:14:37;20.38;;;10.98;;
48052;SDS011;33824;51.600;5.718;2023-02-22T15:17:12;21.23;;;10.55;;
48052;SDS011;33824;51.600;5.718;2023-02-22T15:19:43;24.13;;;10.35;;
48052;SDS011;33824;51.600;5.718;2023-02-22T15:22:21;20.73;;;10.48;;
48052;SDS011;33824;51.600;5.718;2023-02-22T15:25:04;19.50;;;11.27;;
48052;SDS011;33824;51.600;5.718;2023-02-22T15:27:31;16.80;;;9.95;;
48052;SDS011;33824;51.600;5.718;2023-02-22T15:30:02;20.33;;;10.25;;
48052;SDS011;33824;51.600;5.718;2023-02-22T15:32:32;22.67;;;11.50;;
48052;SDS011;33824;51.600;5.718;2023-02-22T15:35:11;22.50;;;10.50;;
48052;SDS011;33824;51.600;5.718;2023-02-22T15:37:56;21.08;;;10.55;;
48052;SDS011;33824;51.600;5.718;2023-02-22T15:40:23;20.83;;;10.70;;
48052;SDS011;33824;51.600;5.718;2023-02-22T15:42:52;27.65;;;11.45;;
48052;SDS011;33824;51.600;5.718;2023-02-22T15:45:21;22.02;;;10.52;;
48052;SDS011;33824;51.600;5.718;2023-02-22T15:47:49;23.03;;;11.27;;
48052;SDS011;33824;51.600;5.718;2023-02-22T15:50:24;21.02;;;10.43;;
48052;SDS011;33824;51.600;5.718;2023-02-22T15:52:59;23.17;;;11.63;;
48052;SDS011;33824;51.600;5.718;2023-02-22T15:58:02;20.85;;;9.48;;
48052;SDS011;33824;51.600;5.718;2023-02-22T16:00:37;17.15;;;9.77;;
48052;SDS011;33824;51.600;5.718;2023-02-22T16:03:05;19.77;;;10.52;;
48052;SDS011;33824;51.600;5.718;2023-02-22T16:08:02;21.92;;;10.95;;
48052;SDS011;33824;51.600;5.718;2023-02-22T16:10:29;19.77;;;10.52;;
48052;SDS011;33824;51.600;5.718;2023-02-22T16:13:07;19.90;;;10.73;;
48052;SDS011;33824;51.600;5.718;2023-02-22T16:15:49;22.23;;;10.60;;
48052;SDS011;33824;51.600;5.718;2023-02-22T16:18:30;18.75;;;10.63;;
48052;SDS011;33824;51.600;5.718;2023-02-22T16:21:08;21.98;;;11.25;;
48052;SDS011;33824;51.600;5.718;2023-02-22T16:23:50;21.98;;;11.18;;
48052;SDS011;33824;51.600;5.718;2023-02-22T16:26:30;36.83;;;12.15;;
48052;SDS011;33824;51.600;5.718;2023-02-22T16:29:01;20.05;;;10.82;;
48052;SDS011;33824;51.600;5.718;2023-02-22T16:31:30;23.30;;;11.93;;
48052;SDS011;33824;51.600;5.718;2023-02-22T16:34:05;22.98;;;11.45;;
48052;SDS011;33824;51.600;5.718;2023-02-22T16:36:39;20.77;;;11.30;;
48052;SDS011;33824;51.600;5.718;2023-02-22T16:39:13;33.90;;;12.43;;
48052;SDS011;33824;51.600;5.718;2023-02-22T16:41:46;24.08;;;11.23;;
48052;SDS011;33824;51.600;5.718;2023-02-22T16:44:12;24.70;;;11.82;;
48052;SDS011;33824;51.600;5.718;2023-02-22T16:46:38;17.90;;;10.55;;
48052;SDS011;33824;51.600;5.718;2023-02-22T16:49:08;22.02;;;11.90;;